Time;durP1;ratioP1;P1;durP2;ratioP2;P2;SDS_P1;SDS_P2;PMS_P1;PMS_P2;Temp;Humidity;BMP_temperature;BMP_pressure;BME280_temperature;BME280_humidity;BME280_pressure;Samples;Min_cycle;Max_cycle;Signal;HPM_P1;HPM_P2
2022/05/17 00:02:06;;;;;;;9.95;6.25;;;;;;;18.57;45.76;101364.16;5039659;28;20040;-83
2022/05/17 00:04:32;;;;;;;8.50;5.75;;;;;;;18.57;45.68;101361.53;5039645;28;20055;-82
2022/05/17 00:06:58;;;;;;;11.93;6.45;;;;;;;18.62;45.83;101361.22;5056053;28;20028;-82
2022/05/17 00:09:24;;;;;;;9.40;5.70;;;;;;;18.63;45.63;101340.13;5039519;28;20058;-82
2022/05/17 00:11:49;;;;;;;12.07;6.63;;;;;;;18.66;45.48;101346.13;5055913;28;20087;-82
2022/05/17 00:14:15;;;;;;;11.90;7.03;;;;;;;18.56;45.98;101338.91;5056146;28;20039;-82
2022/05/17 00:16:41;;;;;;;14.25;7.15;;;;;;;18.54;46.02;101345.19;5056221;28;20111;-82
2022/05/17 00:19:06;;;;;;;12.70;6.68;;;;;;;18.50;46.21;101347.22;5072524;28;20028;-83
2022/05/17 00:21:32;;;;;;;17.60;7.55;;;;;;;18.49;46.31;101342.09;5055728;28;20106;-82
2022/05/17 00:23:57;;;;;;;10.10;6.65;;;;;;;18.38;46.27;101329.72;5072808;28;20105;-82
2022/05/17 00:26:23;;;;;;;12.52;6.95;;;;;;;18.42;45.99;101352.16;5055846;28;20557;-82
2022/05/17 00:28:49;;;;;;;9.60;6.43;;;;;;;18.33;46.22;101326.59;5041714;28;20039;-82
2022/05/17 00:31:14;;;;;;;11.25;6.65;;;;;;;18.48;46.24;101343.84;5060142;28;20028;-82
2022/05/17 00:33:40;;;;;;;13.65;7.13;;;;;;;18.58;45.80;101344.03;5060081;28;20032;-82
2022/05/17 00:36:05;;;;;;;13.07;6.72;;;;;;;18.58;45.78;101344.03;5059817;28;20490;-82
2022/05/17 00:38:31;;;;;;;10.55;6.57;;;;;;;18.55;45.37;101321.50;5060355;28;20039;-82
2022/05/17 00:40:57;;;;;;;10.70;6.47;;;;;;;18.54;45.65;101317.22;5060087;28;20081;-82
2022/05/17 00:44:42;;;;;;;14.38;6.70;;;;;;;18.63;45.61;101329.66;5059628;28;20503;-82
2022/05/17 00:46:21;;;;;;;10.85;6.68;;;;;;;18.49;45.47;101310.66;5078945;28;20047;-82
2022/05/17 00:48:47;;;;;;;9.32;6.60;;;;;;;18.66;45.35;101331.25;5060128;28;20032;-82
2022/05/17 00:51:12;;;;;;;9.90;6.60;;;;;;;18.77;44.48;101338.34;5059633;28;20031;-82
2022/05/17 00:53:38;;;;;;;8.57;6.47;;;;;;;18.79;44.62;101339.91;5059429;28;20039;-82
2022/05/17 00:56:09;;;;;;;11.57;7.22;;;;;;;18.75;44.63;101329.75;5043303;28;20035;-82
2022/05/17 00:58:44;;;;;;;12.43;6.53;;;;;;;18.79;44.52;101334.69;5060156;28;20027;-82
2022/05/17 01:01:15;;;;;;;12.27;6.40;;;;;;;18.83;44.65;101335.28;5059869;28;20034;-82
2022/05/17 01:04:10;;;;;;;13.02;6.88;;;;;;;18.60;44.99;101323.81;5059905;28;20467;-82
2022/05/17 01:06:42;;;;;;;12.73;6.32;;;;;;;18.60;45.59;101332.50;5072107;28;20046;-82
2022/05/17 01:09:08;;;;;;;10.55;6.75;;;;;;;18.51;45.29;101322.69;5060278;28;20493;-82
2022/05/17 01:11:34;;;;;;;8.80;6.53;;;;;;;18.60;45.29;101331.69;5059294;28;20048;-82
2022/05/17 01:16:44;;;;;;;10.18;6.28;;;;;;;18.56;45.22;101314.47;5064345;28;20511;-82
2022/05/17 01:19:10;;;;;;;7.80;6.47;;;;;;;18.42;45.50;101291.06;5042486;28;20035;-82
2022/05/17 01:21:36;;;;;;;8.38;6.22;;;;;;;18.56;45.42;101319.72;5075659;28;20028;-82
2022/05/17 01:24:02;;;;;;;9.52;6.45;;;;;;;18.49;45.48;101323.75;5042556;28;20027;-82
2022/05/17 01:26:29;;;;;;;9.90;6.68;;;;;;;18.42;45.41;101306.78;5058923;28;20050;-82
2022/05/17 01:28:54;;;;;;;11.82;7.05;;;;;;;18.39;45.78;101299.97;5042460;28;20511;-82
2022/05/17 01:31:20;;;;;;;11.45;6.72;;;;;;;18.37;45.93;101309.72;5075689;28;20024;-81
2022/05/17 01:33:45;;;;;;;12.32;6.57;;;;;;;18.29;46.01;101301.56;5041932;28;20031;-82
2022/05/17 01:36:11;;;;;;;13.23;6.90;;;;;;;18.26;46.26;101307.00;5059008;28;20102;-82
2022/05/17 01:38:37;;;;;;;10.52;6.65;;;;;;;18.30;46.17;101319.81;5075728;28;20051;-82
2022/05/17 01:41:02;;;;;;;13.05;6.60;;;;;;;18.20;46.06;101307.47;5075091;28;20020;-82
2022/05/17 01:43:28;;;;;;;8.82;6.68;;;;;;;18.24;46.33;101329.84;5075508;28;20027;-83
2022/05/17 01:45:53;;;;;;;13.98;7.45;;;;;;;18.24;46.41;101314.16;5058609;28;20436;-82
2022/05/17 01:48:19;;;;;;;10.98;6.57;;;;;;;18.05;46.51;101275.31;5058003;28;20172;-82
2022/05/17 01:50:45;;;;;;;11.85;6.63;;;;;;;18.24;46.38;101314.16;5058667;28;20032;-82
2022/05/17 01:53:10;;;;;;;9.88;6.65;;;;;;;18.20;46.07;101302.22;5058602;28;20436;-81
2022/05/17 01:55:36;;;;;;;11.68;6.80;;;;;;;18.26;45.94;101309.63;5058338;28;20081;-81
2022/05/17 01:58:01;;;;;;;18.20;6.85;;;;;;;18.22;46.08;101301.16;5058776;28;20046;-82
2022/05/17 02:00:27;;;;;;;10.38;6.75;;;;;;;18.21;45.62;101291.63;5058422;28;20032;-81
2022/05/17 02:02:52;;;;;;;8.48;6.10;;;;;;;18.21;45.75;101303.91;5041470;28;20452;-81
2022/05/17 02:05:19;;;;;;;14.70;6.00;;;;;;;18.09;45.84;101296.88;5041725;28;20028;-82
2022/05/17 02:07:44;;;;;;;10.63;6.55;;;;;;;18.10;46.00;101314.28;5041821;28;20104;-82
2022/05/17 02:10:10;;;;;;;13.00;6.53;;;;;;;18.07;45.71;101294.38;5058173;28;20069;-81
2022/05/17 02:12:35;;;;;;;10.52;6.82;;;;;;;18.13;45.56;101295.72;5074457;28;20048;-82
2022/05/17 02:15:03;;;;;;;7.88;6.25;;;;;;;18.15;45.67;101293.84;5058196;28;20427;-82
2022/05/17 02:17:28;;;;;;;7.25;6.07;;;;;;;18.11;46.18;101308.09;5057877;28;20032;-82
2022/05/17 02:19:54;;;;;;;9.50;6.40;;;;;;;18.15;45.96;101299.06;5058177;28;20082;-82
2022/05/17 02:22:19;;;;;;;10.80;6.65;;;;;;;18.12;45.80;101299.28;5074764;28;20484;-82
2022/05/17 02:24:45;;;;;;;12.27;6.10;;;;;;;18.09;45.84;101289.00;5041334;28;20028;-82
2022/05/17 02:27:11;;;;;;;8.80;6.78;;;;;;;18.04;46.51;101295.41;5058005;28;20411;-82
2022/05/17 02:29:36;;;;;;;12.45;6.00;;;;;;;18.05;46.11;101294.47;5057685;28;20028;-83
2022/05/17 02:32:02;;;;;;;10.18;6.63;;;;;;;18.01;46.44;101293.03;5057768;28;20035;-81
2022/05/17 02:34:28;;;;;;;15.32;7.07;;;;;;;17.98;46.42;101290.59;5057915;28;20096;-82
2022/05/17 02:36:53;;;;;;;12.45;6.90;;;;;;;17.99;46.73;101294.91;5057634;28;20036;-82
2022/05/17 02:39:19;;;;;;;11.85;6.22;;;;;;;17.94;46.71;101286.53;5074769;28;20024;-82
2022/05/17 02:41:44;;;;;;;10.18;6.80;;;;;;;17.97;46.95;101295.94;5057597;28;20485;-82
2022/05/17 02:44:10;;;;;;;12.57;6.25;;;;;;;17.93;46.96;101297.13;5092372;28;20028;-82
2022/05/17 02:46:35;;;;;;;10.05;6.47;;;;;;;17.82;47.09;101291.78;5073919;28;20031;-83
2022/05/17 02:49:02;;;;;;;10.75;6.43;;;;;;;17.82;47.14;101292.63;5057633;28;20024;-82
2022/05/17 02:51:27;;;;;;;10.48;6.68;;;;;;;17.61;48.34;101266.13;5056983;28;20036;-81
2022/05/17 02:53:53;;;;;;;9.38;6.32;;;;;;;18.03;47.11;101304.22;5073895;28;20028;-82
2022/05/17 02:56:19;;;;;;;12.98;6.60;;;;;;;18.23;47.30;101296.75;5057124;28;20485;-82
2022/05/17 02:58:44;;;;;;;12.18;6.10;;;;;;;18.26;47.14;101307.00;5074048;28;20028;-83
2022/05/17 03:01:10;;;;;;;9.55;6.10;;;;;;;18.74;45.89;101283.53;5056923;28;20052;-84
2022/05/17 03:03:39;;;;;;;10.23;6.60;;;;;;;18.99;45.39;101295.69;5040562;28;20036;-82
2022/05/17 03:06:05;;;;;;;12.25;6.20;;;;;;;19.03;45.38;101308.44;5057308;28;20513;-82
2022/05/17 03:08:30;;;;;;;9.80;6.28;;;;;;;18.82;44.40;101304.78;5056875;28;20024;-83
2022/05/17 03:10:56;;;;;;;10.85;6.55;;;;;;;18.43;45.41;101301.41;5073813;28;20052;-83
2022/05/17 03:13:21;;;;;;;10.73;6.82;;;;;;;18.23;45.86;101307.22;5073627;28;20031;-82
2022/05/17 03:15:50;;;;;;;10.57;6.68;;;;;;;18.12;46.28;101312.38;5056609;28;20394;-82
2022/05/17 03:18:15;;;;;;;16.50;6.70;;;;;;;18.10;46.83;101309.03;5057065;28;20509;-82
2022/05/17 03:20:41;;;;;;;19.75;7.38;;;;;;;18.45;45.89;101285.59;5073931;28;20031;-82
2022/05/17 03:23:06;;;;;;;38.10;7.50;;;;;;;18.72;45.16;101290.66;5073841;28;20174;-83
2022/05/17 03:25:32;;;;;;;61.58;10.50;;;;;;;18.76;45.15;101308.66;5056875;28;20036;-83
2022/05/17 03:27:58;;;;;;;50.88;8.15;;;;;;;18.80;44.97;101307.53;5056871;28;20055;-82
2022/05/17 03:30:23;;;;;;;20.67;6.90;;;;;;;18.78;45.03;101303.31;5037263;28;20020;-81
2022/05/17 03:32:49;;;;;;;20.13;7.28;;;;;;;18.72;44.88;101267.09;5073018;28;20024;-82
2022/05/17 03:35:14;;;;;;;17.38;6.80;;;;;;;18.87;44.90;101313.13;5072995;28;20108;-82
2022/05/17 03:37:40;;;;;;;13.43;6.53;;;;;;;18.77;45.30;101322.63;5073039;28;20059;-82
2022/05/17 03:40:07;;;;;;;26.10;7.07;;;;;;;19.09;44.61;101296.69;5072368;28;20070;-82
2022/05/17 03:42:33;;;;;;;16.15;6.57;;;;;;;19.16;44.73;101324.09;5073673;28;20032;-82
2022/05/17 03:44:59;;;;;;;12.70;6.30;;;;;;;19.00;44.63;101303.44;5072643;28;20027;-83
2022/05/17 03:47:24;;;;;;;14.80;6.90;;;;;;;19.02;44.87;101317.28;5039633;28;20170;-84
2022/05/17 03:49:49;;;;;;;12.15;7.22;;;;;;;19.11;44.69;101316.59;5056249;28;20032;-84
2022/05/17 03:52:15;;;;;;;12.63;6.70;;;;;;;19.09;44.75;101312.41;5072451;28;20059;-84
2022/05/17 03:54:40;;;;;;;16.00;6.97;;;;;;;19.20;44.66;101320.31;5056239;28;20051;-84
2022/05/17 03:57:06;;;;;;;10.55;6.85;;;;;;;19.09;45.17;101329.00;5053947;28;20409;-84
2022/05/17 03:59:32;;;;;;;15.57;6.85;;;;;;;19.20;45.72;101321.16;5055264;28;20488;-89
2022/05/17 04:01:57;;;;;;;12.27;7.22;;;;;;;18.98;46.11;101322.88;5039669;28;20105;-91
2022/05/17 04:04:23;;;;;;;16.52;8.35;;;;;;;18.90;45.79;101318.16;5039234;28;20032;-90
2022/05/17 04:06:49;;;;;;;20.60;11.93;;;;;;;18.65;46.70;101324.34;5056103;28;20554;-88
2022/05/17 04:09:14;;;;;;;24.02;17.48;;;;;;;18.65;46.40;101328.75;5055657;28;20027;-86
2022/05/17 04:11:40;;;;;;;13.77;8.35;;;;;;;18.71;47.56;101328.31;5041186;28;20434;-87
2022/05/17 04:14:07;;;;;;;34.28;20.05;;;;;;;18.77;47.30;101318.19;5014438;28;20041;-89
2022/05/17 04:16:33;;;;;;;97.38;59.13;;;;;;;19.18;46.41;101330.09;5048561;28;20025;-90
2022/05/17 04:18:59;;;;;;;67.95;33.80;;;;;;;19.58;44.80;101335.88;5016216;28;20120;-90
2022/05/17 04:21:24;;;;;;;19.77;9.13;;;;;;;19.34;45.00;101342.91;5012091;28;20091;-90
2022/05/17 04:23:50;;;;;;;13.18;9.73;;;;;;;19.21;45.66;101345.59;5006977;28;20129;-87
2022/05/17 04:26:15;;;;;;;15.88;7.78;;;;;;;19.28;44.80;101346.84;5031902;28;20064;-84
2022/05/17 04:28:41;;;;;;;15.63;7.57;;;;;;;19.34;44.60;101348.97;5031850;28;20037;-89
2022/05/17 04:31:06;;;;;;;13.63;7.03;;;;;;;19.15;45.17;101343.41;5016056;28;20032;-91
2022/05/17 04:33:32;;;;;;;14.57;7.78;;;;;;;19.02;45.89;101343.50;5033113;28;20033;-90
2022/05/17 04:35:57;;;;;;;12.85;7.82;;;;;;;19.07;46.66;101341.34;5015794;28;20116;-89
2022/05/17 04:38:23;;;;;;;12.88;8.13;;;;;;;19.03;46.10;101334.66;5031136;28;20021;-90
2022/05/17 04:40:49;;;;;;;19.20;8.70;;;;;;;19.08;45.06;101337.81;5031163;28;20422;-88
2022/05/17 04:43:14;;;;;;;16.27;7.72;;;;;;;18.92;46.30;101319.72;5031099;28;20021;-83
2022/05/17 04:45:41;;;;;;;15.27;7.75;;;;;;;19.01;45.76;101331.34;5047046;28;20048;-87
2022/05/17 04:48:07;;;;;;;13.60;7.82;;;;;;;19.08;46.20;101335.19;5032243;28;20201;-85
2022/05/17 04:50:33;;;;;;;14.02;8.00;;;;;;;19.13;46.07;101333.03;5060193;28;20600;-88
2022/05/17 04:52:58;;;;;;;14.65;8.38;;;;;;;19.17;45.97;101336.25;5049890;28;20029;-88
2022/05/17 04:55:24;;;;;;;12.98;7.57;;;;;;;19.12;45.64;101328.75;5034157;28;20025;-88
2022/05/17 04:57:50;;;;;;;13.52;7.35;;;;;;;19.17;45.92;101336.25;5046673;28;20032;-88
2022/05/17 05:00:18;;;;;;;16.05;7.78;;;;;;;19.17;46.07;101347.63;5016381;28;20066;-90
2022/05/17 05:02:43;;;;;;;12.02;7.70;;;;;;;19.07;46.19;101341.34;5019476;28;20085;-89
2022/05/17 05:05:09;;;;;;;13.70;8.60;;;;;;;19.08;46.83;101353.53;5040521;28;20037;-89
2022/05/17 05:07:35;;;;;;;11.10;7.20;;;;;;;19.12;46.56;101354.16;5033698;28;20029;-90
2022/05/17 05:10:00;;;;;;;20.48;12.50;;;;;;;19.10;46.97;101349.03;5033763;28;20490;-86
2022/05/17 05:12:26;;;;;;;21.13;13.63;;;;;;;19.23;46.59;101351.56;5031097;28;20122;-86
2022/05/17 05:14:51;;;;;;;13.40;8.18;;;;;;;19.26;46.94;101340.00;5048237;28;20037;-84
2022/05/17 05:17:17;;;;;;;13.43;7.40;;;;;;;19.40;46.31;101352.94;5051843;28;20033;-84
2022/05/17 05:19:42;;;;;;;20.05;8.00;;;;;;;19.38;45.67;101342.56;5023433;28;20155;-84
2022/05/17 05:22:08;;;;;;;12.80;7.75;;;;;;;19.45;45.87;101345.56;5055477;28;20107;-87
2022/05/17 05:24:34;;;;;;;13.80;8.02;;;;;;;19.57;46.02;101349.09;5041915;28;20563;-84
2022/05/17 05:26:59;;;;;;;12.63;8.50;;;;;;;19.77;45.66;101346.63;5017729;28;20029;-84
2022/05/17 05:29:25;;;;;;;17.08;9.15;;;;;;;19.84;45.50;101343.53;5034822;28;20036;-85
2022/05/17 05:31:51;;;;;;;19.90;9.13;;;;;;;19.83;45.59;101339.22;5033675;28;20020;-86
2022/05/17 05:34:16;;;;;;;17.35;8.90;;;;;;;20.24;46.88;101328.97;5069566;28;20485;-88
2022/05/17 05:36:43;;;;;;;17.67;9.10;;;;;;;20.87;43.84;101340.63;5037818;28;20028;-84
2022/05/17 05:39:09;;;;;;;17.67;9.05;;;;;;;21.01;44.64;101346.56;5053521;28;20122;-89
2022/05/17 05:41:34;;;;;;;25.85;8.80;;;;;;;21.09;43.49;101346.78;5036632;28;20071;-88
2022/05/17 05:44:00;;;;;;;14.02;9.00;;;;;;;21.01;43.11;101352.66;5044985;28;20033;-90
2022/05/17 05:46:27;;;;;;;19.75;9.68;;;;;;;21.22;44.57;101339.53;5036765;28;20072;-85
2022/05/17 05:48:53;;;;;;;17.55;9.07;;;;;;;21.54;43.81;101322.91;5050534;28;20029;-89
2022/05/17 05:51:18;;;;;;;17.98;9.80;;;;;;;21.53;40.88;101329.94;5053626;28;20048;-85
2022/05/17 05:53:44;;;;;;;17.73;9.65;;;;;;;21.40;42.57;101345.09;5050297;28;20531;-86
2022/05/17 05:56:11;;;;;;;28.00;10.00;;;;;;;21.39;42.84;101360.06;5049363;28;20033;-89
2022/05/17 05:58:39;;;;;;;19.08;9.02;;;;;;;21.15;42.37;101343.66;5056012;28;20143;-87
2022/05/17 06:01:05;;;;;;;21.65;9.27;;;;;;;21.20;44.39;101344.09;5042525;28;20029;-87
2022/05/17 06:03:31;;;;;;;17.17;8.45;;;;;;;21.20;43.85;101323.03;5033735;28;20074;-88
2022/05/17 06:05:57;;;;;;;17.90;8.55;;;;;;;21.38;42.64;101337.34;5065427;28;20516;-90
2022/05/17 06:08:23;;;;;;;15.18;8.55;;;;;;;21.30;42.59;101334.50;5038873;28;20032;-92
2022/05/17 06:10:48;;;;;;;14.38;8.57;;;;;;;21.38;42.19;101342.59;5069940;28;20029;-91
2022/05/17 06:13:15;;;;;;;16.20;9.30;;;;;;;21.32;43.39;101340.47;5094534;28;20416;-92
2022/05/17 06:15:41;;;;;;;18.58;9.27;;;;;;;21.37;42.73;101346.19;5043165;28;20043;-90
2022/05/17 06:18:07;;;;;;;19.92;10.13;;;;;;;21.34;42.40;101351.72;5045843;28;20461;-87
2022/05/17 06:20:33;;;;;;;17.27;9.30;;;;;;;21.57;42.73;101347.16;5072983;28;20081;-90
2022/05/17 06:22:58;;;;;;;13.52;8.98;;;;;;;21.55;42.75;101353.53;5041315;28;20449;-89
2022/05/17 06:25:24;;;;;;;14.85;8.88;;;;;;;21.58;42.09;101346.19;5069815;28;20067;-92
2022/05/17 06:27:49;;;;;;;14.40;9.85;;;;;;;21.68;42.84;101356.81;5078630;28;20066;-91
2022/05/17 06:30:15;;;;;;;12.27;8.15;;;;;;;21.97;42.75;101360.44;5027886;28;20519;-93
2022/05/17 06:32:41;;;;;;;17.92;9.05;;;;;;;22.15;40.95;101351.94;5050261;28;20538;-91
2022/05/17 06:35:07;;;;;;;16.50;9.48;;;;;;;22.21;42.83;101364.59;5111285;28;20016;-91
2022/05/17 06:37:32;;;;;;;13.63;9.07;;;;;;;22.15;41.76;101344.06;5052798;28;20032;-88
2022/05/17 06:39:58;;;;;;;16.75;8.65;;;;;;;22.17;41.29;101329.75;5084901;28;20031;-90
2022/05/17 06:42:24;;;;;;;14.13;9.55;;;;;;;22.48;41.46;101348.19;5071406;28;20118;-93
2022/05/17 06:44:49;;;;;;;15.63;8.70;;;;;;;22.49;41.52;101340.13;5055240;28;20032;-87
2022/05/17 06:47:15;;;;;;;13.30;9.40;;;;;;;22.77;41.32;101342.97;5062009;28;20036;-88
2022/05/17 06:49:41;;;;;;;23.48;9.43;;;;;;;22.86;40.90;101329.00;5071473;28;20032;-93
2022/05/17 06:52:08;;;;;;;18.58;9.10;;;;;;;22.96;40.05;101334.28;5072540;28;20028;-88
2022/05/17 06:54:34;;;;;;;19.13;9.80;;;;;;;23.01;40.27;101330.25;5057015;28;20024;-91
2022/05/17 06:57:06;;;;;;;12.50;8.60;;;;;;;23.17;39.81;101329.69;5046069;28;20030;-92
2022/05/17 06:59:32;;;;;;;14.93;8.63;;;;;;;23.41;39.26;101338.03;5059409;28;20023;-88
2022/05/17 07:01:59;;;;;;;15.43;8.65;;;;;;;23.55;38.25;101334.09;5065858;28;20057;-92
2022/05/17 07:04:26;;;;;;;14.85;8.70;;;;;;;23.59;38.67;101324.94;5048862;28;20035;-91
2022/05/17 07:06:53;;;;;;;15.35;8.77;;;;;;;23.70;38.36;101335.34;5071061;28;20031;-91
2022/05/17 07:09:22;;;;;;;14.60;8.63;;;;;;;23.78;38.49;101323.22;5059636;28;20092;-90
2022/05/17 07:14:32;;;;;;;17.40;8.65;;;;;;;24.21;38.52;101331.41;5052643;28;20180;-88
2022/05/17 07:16:58;;;;;;;17.02;9.85;;;;;;;24.27;37.83;101312.31;5064601;28;20719;-86
2022/05/17 07:19:23;;;;;;;16.90;10.40;;;;;;;24.47;37.78;101323.63;5074982;28;20027;-84
2022/05/17 07:21:48;;;;;;;15.88;8.57;;;;;;;24.50;37.54;101309.31;5075225;28;20043;-91
2022/05/17 07:24:14;;;;;;;12.88;8.80;;;;;;;24.81;37.77;101323.84;5039773;28;20109;-87
2022/05/17 07:26:39;;;;;;;17.30;9.55;;;;;;;24.98;37.48;101324.00;5077974;28;20020;-91
2022/05/17 07:29:05;;;;;;;19.63;9.50;;;;;;;25.02;36.68;101318.28;5073134;28;20040;-90
2022/05/17 07:31:30;;;;;;;14.18;8.38;;;;;;;24.96;36.26;101305.59;5088059;28;20039;-89
2022/05/17 07:33:58;;;;;;;13.63;8.30;;;;;;;25.00;36.47;101316.75;5042007;28;20506;-89
2022/05/17 07:36:24;;;;;;;12.48;8.10;;;;;;;25.17;36.03;101316.75;5040616;28;20104;-89
2022/05/17 07:38:49;;;;;;;13.00;8.52;;;;;;;25.32;36.32;101311.72;5057181;28;20055;-91
2022/05/17 07:41:15;;;;;;;14.82;8.98;;;;;;;25.62;35.42;101325.50;5053265;28;20485;-92
2022/05/17 07:43:40;;;;;;;14.90;8.40;;;;;;;25.83;35.48;101323.34;5041017;28;20024;-93
2022/05/17 07:46:06;;;;;;;18.48;8.77;;;;;;;25.91;35.08;101312.78;5060260;28;20031;-92
2022/05/17 07:48:31;;;;;;;16.30;11.38;;;;;;;26.10;33.75;101318.84;5079355;28;20028;-93
2022/05/17 07:50:57;;;;;;;27.33;8.18;;;;;;;25.99;32.84;101304.06;5056824;28;20028;-91
2022/05/17 07:53:23;;;;;;;10.05;7.78;;;;;;;26.01;33.54;101305.53;5057723;28;20393;-89
2022/05/17 07:55:50;;;;;;;12.15;7.63;;;;;;;26.07;33.03;101300.59;5062253;28;20107;-93
2022/05/17 07:58:15;;;;;;;13.93;8.27;;;;;;;26.41;33.37;101313.84;5059835;28;20023;-93
2022/05/17 08:00:41;;;;;;;10.18;7.72;;;;;;;26.47;32.69;101305.25;5089463;28;20028;-94
2022/05/17 08:03:08;;;;;;;11.10;7.20;;;;;;;26.73;31.97;101305.09;5090545;28;20028;-94
2022/05/17 08:05:34;;;;;;;12.88;8.05;;;;;;;26.92;32.85;101302.16;5090031;28;20027;-92
2022/05/17 08:08:00;;;;;;;11.40;7.35;;;;;;;27.14;32.16;101293.56;5070247;28;20028;-91
2022/05/17 08:10:25;;;;;;;11.93;7.60;;;;;;;27.20;31.80;101284.09;5092466;28;20027;-92
2022/05/17 08:12:51;;;;;;;13.05;7.78;;;;;;;27.41;31.25;101286.22;5091946;28;20052;-84
2022/05/17 08:15:18;;;;;;;10.10;7.53;;;;;;;27.36;29.86;101291.22;5105432;28;20412;-86
2022/05/17 08:17:44;;;;;;;11.50;7.38;;;;;;;27.38;30.71;101292.69;5059495;28;20028;-84
2022/05/17 08:20:10;;;;;;;13.02;7.88;;;;;;;27.49;31.36;101256.16;5073530;28;20073;-83
2022/05/17 08:22:40;;;;;;;11.98;6.53;;;;;;;27.71;29.47;101266.91;5051478;28;20116;-83
2022/05/17 08:27:50;;;;;;;11.27;7.63;;;;;;;28.29;28.43;101276.31;5075716;28;20035;-85
2022/05/17 08:30:18;;;;;;;12.57;6.85;;;;;;;28.30;28.08;101266.50;5075238;28;20023;-90
2022/05/17 08:35:30;;;;;;;15.07;10.38;;;;;;;28.77;28.13;101246.88;5096780;28;20502;-92
2022/05/17 08:37:56;;;;;;;10.25;7.63;;;;;;;29.05;27.87;101268.47;5087595;28;20063;-91
2022/05/17 08:40:22;;;;;;;13.15;7.47;;;;;;;29.23;28.81;101263.66;5063435;28;20031;-86
2022/05/17 08:43:16;;;;;;;12.80;6.90;;;;;;;29.27;27.18;101264.94;5062945;28;20084;-89
2022/05/17 08:46:18;;;;;;;11.15;6.72;;;;;;;29.24;27.00;101264.47;5045413;28;20039;-85
2022/05/17 08:49:06;;;;;;;11.43;6.88;;;;;;;29.17;27.18;101269.69;5092302;28;20500;-87
2022/05/17 08:51:37;;;;;;;10.20;7.05;;;;;;;29.32;28.20;101261.72;5089827;28;20696;-86
2022/05/17 08:54:07;;;;;;;12.85;7.38;;;;;;;29.26;27.96;101241.97;5045964;28;20032;-90
2022/05/17 08:56:36;;;;;;;13.68;7.45;;;;;;;29.48;27.99;101255.38;5095768;28;20027;-85
2022/05/17 08:59:01;;;;;;;9.70;6.93;;;;;;;29.51;28.46;101234.56;5096184;28;20107;-82
2022/05/17 09:01:31;;;;;;;10.77;7.38;;;;;;;29.82;27.23;101242.34;5051082;28;20028;-84
2022/05/17 09:04:19;;;;;;;15.05;7.55;;;;;;;29.73;27.95;101251.47;5055643;28;20028;-87
2022/05/17 09:06:50;;;;;;;11.75;7.80;;;;;;;29.83;27.42;101233.34;5083623;28;20385;-84
2022/05/17 09:09:21;;;;;;;10.27;7.47;;;;;;;29.72;27.99;101255.16;5112578;27;20411;-84
2022/05/17 09:11:57;;;;;;;11.23;7.53;;;;;;;29.71;28.11;101226.84;5078962;28;20281;-84
2022/05/17 09:14:29;;;;;;;10.50;7.80;;;;;;;29.91;27.85;101235.06;5086608;28;20797;-82
2022/05/17 09:17:03;;;;;;;12.00;7.65;;;;;;;30.14;27.47;101243.78;5093420;28;20098;-83
2022/05/17 09:19:29;;;;;;;11.38;7.93;;;;;;;30.33;27.21;101239.69;5076668;28;20031;-88
2022/05/17 09:21:58;;;;;;;12.68;8.00;;;;;;;30.44;27.37;101228.50;5075303;28;20031;-84
2022/05/17 09:24:25;;;;;;;11.70;8.23;;;;;;;30.58;27.23;101226.78;5079391;28;20100;-86
2022/05/17 09:27:02;;;;;;;12.02;7.65;;;;;;;30.67;26.98;101214.97;5077114;28;20440;-85
2022/05/17 09:29:36;;;;;;;12.45;8.10;;;;;;;30.76;26.55;101215.66;5072743;28;20496;-81
2022/05/17 09:32:03;;;;;;;14.65;8.70;;;;;;;30.79;27.36;101207.28;5051993;28;20033;-84
2022/05/17 09:34:43;;;;;;;15.73;8.30;;;;;;;30.99;27.36;101199.41;5079518;28;20110;-83
2022/05/17 09:37:13;;;;;;;10.68;8.30;;;;;;;30.99;27.29;101200.22;5077729;28;20071;-85
2022/05/17 09:39:39;;;;;;;12.77;7.80;;;;;;;31.27;26.49;101199.41;5068888;28;20051;-84
2022/05/17 09:42:06;;;;;;;11.30;8.10;;;;;;;31.45;26.65;101199.69;5109934;28;20038;-84
2022/05/17 09:44:33;;;;;;;9.57;7.72;;;;;;;31.22;26.02;101207.19;5058593;28;20028;-85
2022/05/17 09:47:00;;;;;;;10.68;7.60;;;;;;;31.33;26.43;101187.91;5040291;28;20063;-83
2022/05/17 09:52:32;;;;;;;10.05;7.70;;;;;;;31.54;25.90;101195.84;5109824;28;20550;-82
2022/05/17 09:55:24;;;;;;;15.15;7.18;;;;;;;31.75;26.04;101180.69;5096942;28;20111;-81
2022/05/17 09:58:10;;;;;;;11.60;6.90;;;;;;;32.02;25.50;101171.75;5080375;28;20062;-81
2022/05/17 10:00:42;;;;;;;12.68;7.88;;;;;;;31.54;25.67;101144.22;5103907;28;20394;-87
2022/05/17 10:03:16;;;;;;;9.43;7.53;;;;;;;31.95;25.59;101165.53;5091289;28;20023;-86
2022/05/17 10:05:48;;;;;;;8.85;7.45;;;;;;;31.93;25.29;101164.94;5102167;28;20082;-86
2022/05/17 10:08:14;;;;;;;10.68;7.13;;;;;;;31.97;24.56;101158.16;5060387;28;20488;-82
2022/05/17 10:11:06;;;;;;;13.55;7.70;;;;;;;32.14;25.28;101154.06;5112518;28;20041;-88
2022/05/17 10:13:47;;;;;;;12.05;7.93;;;;;;;32.55;25.35;101155.78;5076667;28;20032;-84
2022/05/17 10:16:19;;;;;;;10.65;7.78;;;;;;;32.53;25.23;101139.91;5108880;28;20020;-86
2022/05/17 10:18:58;;;;;;;12.05;7.97;;;;;;;32.75;24.54;101148.56;5050059;28;20036;-85
2022/05/17 10:21:45;;;;;;;9.73;7.10;;;;;;;32.81;24.71;101150.38;5048602;28;20450;-85
2022/05/17 10:24:23;;;;;;;10.52;7.25;;;;;;;32.88;23.90;101136.19;5055231;28;20036;-85
2022/05/17 10:27:25;;;;;;;10.38;7.63;;;;;;;32.74;24.00;101141.56;5061108;28;20106;-85
2022/05/17 10:30:05;;;;;;;9.82;6.78;;;;;;;32.82;23.51;101135.13;5079050;28;20085;-86
2022/05/17 10:32:44;;;;;;;12.40;7.10;;;;;;;32.94;24.12;101113.88;5087572;27;20034;-82
2022/05/17 10:35:16;;;;;;;10.68;8.13;;;;;;;33.28;24.22;101140.41;5042798;28;20037;-85
2022/05/17 10:38:04;;;;;;;10.85;7.22;;;;;;;32.99;23.74;101122.13;5075783;28;20020;-85
2022/05/17 10:40:32;;;;;;;10.15;7.13;;;;;;;33.08;24.51;101124.38;5079513;28;20035;-85
2022/05/17 10:42:57;;;;;;;12.25;7.30;;;;;;;33.24;23.77;101130.31;5058841;28;20036;-89
2022/05/17 10:45:33;;;;;;;13.18;7.70;;;;;;;33.45;23.43;101121.19;5042163;28;20043;-85
2022/05/17 10:48:18;;;;;;;13.25;7.00;;;;;;;33.31;23.34;101123.88;5047382;28;20107;-86
2022/05/17 10:51:02;;;;;;;17.75;12.48;;;;;;;33.43;23.64;101129.41;5069493;28;20028;-86
2022/05/17 10:54:09;;;;;;;11.27;9.70;;;;;;;33.43;24.40;101120.56;5076494;28;20086;-84
2022/05/17 10:56:41;;;;;;;8.68;7.00;;;;;;;33.26;23.53;101104.94;5003916;28;20038;-83
2022/05/17 10:59:25;;;;;;;11.60;6.40;;;;;;;33.10;22.25;101110.75;5072833;28;20075;-87
2022/05/17 11:01:59;;;;;;;11.45;6.95;;;;;;;32.98;22.46;101107.91;5061765;28;20545;-87
2022/05/17 11:04:32;;;;;;;8.38;5.80;;;;;;;32.88;22.18;101098.69;5077035;28;20051;-86
2022/05/17 11:07:00;;;;;;;12.15;7.50;;;;;;;32.50;23.43;101102.00;5065736;28;20070;-88
2022/05/17 11:09:31;;;;;;;12.52;6.85;;;;;;;32.31;23.61;101090.28;5077577;28;20032;-90
2022/05/17 11:12:09;;;;;;;7.72;6.68;;;;;;;32.14;23.85;101079.13;5076251;28;20044;-87
2022/05/17 11:14:59;;;;;;;9.43;6.25;;;;;;;32.27;23.88;101072.13;5060407;28;20032;-92
2022/05/17 11:17:30;;;;;;;10.23;6.65;;;;;;;32.61;22.55;101074.59;5075698;28;20029;-88
2022/05/17 11:20:09;;;;;;;7.53;6.07;;;;;;;32.63;22.76;101069.84;5076920;28;20035;-91
2022/05/17 11:23:15;;;;;;;9.40;5.95;;;;;;;32.79;22.63;101066.72;5076421;28;20064;-93
2022/05/17 11:26:05;;;;;;;8.25;6.20;;;;;;;32.51;21.69;101064.28;5061512;28;20024;-91
2022/05/17 11:28:53;;;;;;;12.60;6.93;;;;;;;32.46;22.36;101053.41;5058564;28;20031;-87
2022/05/17 11:31:37;;;;;;;7.30;6.13;;;;;;;32.71;22.66;101058.91;5068576;28;20058;-89
2022/05/17 11:34:31;;;;;;;9.23;6.10;;;;;;;32.78;22.12;101050.84;5060883;28;20028;-90
2022/05/17 11:36:58;;;;;;;8.75;6.00;;;;;;;32.83;22.42;101040.34;5060693;28;20059;-88
2022/05/17 11:39:37;;;;;;;8.88;5.90;;;;;;;33.22;21.83;101038.53;5054371;28;20637;-88